Time,TemperatureF,DewpointF,PressureIn,WindDirection,WindDirectionDegrees,WindSpeedMPH,WindSpeedGustMPH,Humidity,HourlyPrecipIn,Conditions,Clouds,dailyrainin,SoftwareType,DateUTC
2013-02-05 00:21:00,64.0,22.0,29.97,NNE,30,2.0,7.0,20,0.00,,,-99.99,,2013-02-05 08:21:00,
2013-02-05 00:31:00,64.0,22.0,29.97,NNE,30,2.0,7.0,20,0.00,,,-99.99,,2013-02-05 08:31:00,
2013-02-05 01:21:00,63.0,21.0,29.95,NNE,30,4.0,6.0,20,0.00,,,-99.99,,2013-02-05 09:21:00,
2013-02-05 01:31:00,63.0,21.0,29.95,NNE,30,4.0,6.0,20,0.00,,,-99.99,,2013-02-05 09:31:00,
2013-02-05 02:21:00,62.0,25.0,29.94,NNE,30,2.0,8.0,24,0.00,,,-99.99,,2013-02-05 10:21:00,
2013-02-05 02:31:00,62.0,25.0,29.94,NNE,30,2.0,8.0,24,0.00,,,-99.99,,2013-02-05 10:31:00,
2013-02-05 02:42:00,62.0,25.0,29.94,NNE,30,2.0,8.0,24,0.00,,,-99.99,,2013-02-05 10:42:00,
2013-02-05 03:22:00,63.0,27.0,29.94,NNE,30,7.0,16.0,25,0.00,,,-99.99,,2013-02-05 11:22:00,
2013-02-05 03:32:00,63.0,27.0,29.94,NNE,30,7.0,16.0,25,0.00,,,-99.99,,2013-02-05 11:32:00,
2013-02-05 03:41:00,63.0,27.0,29.94,NNE,30,7.0,16.0,25,0.00,,,-99.99,,2013-02-05 11:41:00,
2013-02-05 04:21:00,61.0,26.0,29.93,NNE,30,2.0,3.0,26,0.00,,,-99.99,,2013-02-05 12:21:00,
2013-02-05 04:32:00,61.0,26.0,29.93,NNE,30,2.0,3.0,26,0.00,,,-99.99,,2013-02-05 12:32:00,
2013-02-05 04:42:00,61.0,26.0,29.93,NNE,30,2.0,3.0,26,0.00,,,-99.99,,2013-02-05 12:42:00,
2013-02-05 05:21:00,60.0,25.0,29.93,NNE,30,6.0,6.0,26,0.00,,,-99.99,,2013-02-05 13:21:00,
2013-02-05 05:31:00,60.0,25.0,29.93,NNE,30,6.0,6.0,26,0.00,,,-99.99,,2013-02-05 13:31:00,
2013-02-05 05:42:00,60.0,25.0,29.93,NNE,30,6.0,6.0,26,0.00,,,-99.99,,2013-02-05 13:42:00,
2013-02-05 06:21:00,61.0,24.0,29.93,NNE,20,5.0,5.0,24,0.00,,,-99.99,,2013-02-05 14:21:00,
2013-02-05 06:31:00,61.0,24.0,29.93,NNE,20,5.0,5.0,24,0.00,,,-99.99,,2013-02-05 14:31:00,
2013-02-05 07:21:00,59.0,26.0,29.93,NNE,20,2.0,2.0,28,0.00,,,-99.99,,2013-02-05 15:21:00,
2013-02-05 07:32:00,59.0,26.0,29.93,NNE,20,2.0,2.0,28,0.00,,,-99.99,,2013-02-05 15:32:00,
2013-02-05 07:41:00,59.0,26.0,29.93,NNE,20,2.0,2.0,28,0.00,,,-99.99,,2013-02-05 15:41:00,
2013-02-05 08:22:00,64.0,27.0,29.95,North,0,0.0,3.0,25,0.00,,,-99.99,,2013-02-05 16:22:00,
2013-02-05 08:32:00,64.0,27.0,29.95,North,0,0.0,3.0,25,0.00,,,-99.99,,2013-02-05 16:32:00,
2013-02-05 08:42:00,64.0,27.0,29.95,North,0,0.0,3.0,25,0.00,,,-99.99,,2013-02-05 16:42:00,
2013-02-05 09:21:00,67.0,27.0,29.97,North,0,0.0,4.0,22,0.00,,,-99.99,,2013-02-05 17:21:00,
2013-02-05 09:32:00,67.0,27.0,29.97,North,0,0.0,4.0,22,0.00,,,-99.99,,2013-02-05 17:32:00,
2013-02-05 09:42:00,67.0,27.0,29.97,North,0,0.0,4.0,22,0.00,,,-99.99,,2013-02-05 17:42:00,
2013-02-05 10:21:00,70.0,27.0,29.98,NNE,30,5.0,7.0,20,0.00,,,-99.99,,2013-02-05 18:21:00,
2013-02-05 10:32:00,70.0,27.0,29.98,NNE,30,5.0,7.0,20,0.00,,,-99.99,,2013-02-05 18:32:00,
2013-02-05 10:42:00,70.0,27.0,29.98,NNE,30,5.0,7.0,20,0.00,,,-99.99,,2013-02-05 18:42:00,
2013-02-05 11:21:00,73.0,30.0,29.97,NE,50,11.0,14.0,20,0.00,,,-99.99,,2013-02-05 19:21:00,
2013-02-05 11:32:00,73.0,30.0,29.97,NE,50,11.0,14.0,20,0.00,,,-99.99,,2013-02-05 19:32:00,
2013-02-05 12:21:00,73.0,32.0,29.94,East,100,9.0,12.0,22,0.00,,,-99.99,,2013-02-05 20:21:00,
2013-02-05 12:32:00,73.0,32.0,29.94,East,100,9.0,12.0,22,0.00,,,-99.99,,2013-02-05 20:32:00,
2013-02-05 12:42:00,73.0,32.0,29.94,East,100,9.0,12.0,22,0.00,,,-99.99,,2013-02-05 20:42:00,
2013-02-05 13:21:00,74.0,33.0,29.91,ESE,120,5.0,11.0,22,0.00,,,-99.99,,2013-02-05 21:21:00,
2013-02-05 13:32:00,74.0,33.0,29.91,ESE,120,5.0,11.0,22,0.00,,,-99.99,,2013-02-05 21:32:00,
2013-02-05 13:41:00,74.0,33.0,29.91,ESE,120,5.0,11.0,22,0.00,,,-99.99,,2013-02-05 21:41:00,
2013-02-05 13:42:00,74.0,34.0,29.88,SE,130,8.0,10.0,23,0.00,,,-99.99,,2013-02-05 21:42:00,
2013-02-05 14:21:00,74.0,34.0,29.88,SE,130,8.0,10.0,23,0.00,,,-99.99,,2013-02-05 22:21:00,
2013-02-05 14:32:00,74.0,34.0,29.88,SE,130,8.0,10.0,23,0.00,,,-99.99,,2013-02-05 22:32:00,
2013-02-05 15:21:00,75.0,34.0,29.85,SE,140,5.0,10.0,22,0.00,,,-99.99,,2013-02-05 23:21:00,
2013-02-05 15:32:00,75.0,34.0,29.85,SE,140,5.0,10.0,22,0.00,,,-99.99,,2013-02-05 23:32:00,
2013-02-05 15:41:00,75.0,34.0,29.85,SE,140,5.0,10.0,22,0.00,,,-99.99,,2013-02-05 23:41:00,
2013-02-05 15:42:00,75.0,34.0,29.85,SE,140,4.0,9.0,22,0.00,,,-99.99,,2013-02-05 23:42:00,
2013-02-05 16:21:00,75.0,34.0,29.85,SE,140,4.0,9.0,22,0.00,,,-99.99,,2013-02-06 00:21:00,
2013-02-05 16:32:00,75.0,34.0,29.85,SE,140,4.0,9.0,22,0.00,,,-99.99,,2013-02-06 00:32:00,
2013-02-05 17:21:00,73.0,34.0,29.85,SE,140,16.0,16.0,24,0.00,,,-99.99,,2013-02-06 01:21:00,
2013-02-05 17:32:00,73.0,34.0,29.85,SE,140,16.0,16.0,24,0.00,,,-99.99,,2013-02-06 01:32:00,
2013-02-05 17:42:00,73.0,34.0,29.85,SE,140,16.0,16.0,24,0.00,,,-99.99,,2013-02-06 01:42:00,
2013-02-05 18:22:00,69.0,34.0,29.85,West,270,16.0,21.0,27,0.00,,,-99.99,,2013-02-06 02:22:00,
2013-02-05 18:32:00,69.0,34.0,29.85,West,270,16.0,21.0,27,0.00,,,-99.99,,2013-02-06 02:32:00,
2013-02-05 19:21:00,68.0,33.0,29.86,WNW,300,14.0,22.0,27,0.00,,,-99.99,,2013-02-06 03:21:00,
2013-02-05 19:32:00,68.0,33.0,29.86,WNW,300,14.0,22.0,27,0.00,,,-99.99,,2013-02-06 03:32:00,
2013-02-05 19:42:00,68.0,33.0,29.86,WNW,300,14.0,22.0,27,0.00,,,-99.99,,2013-02-06 03:42:00,
2013-02-05 20:21:00,67.0,35.0,29.87,NW,310,11.0,31.0,31,0.00,,,-99.99,,2013-02-06 04:21:00,
2013-02-05 20:31:00,67.0,35.0,29.87,NW,310,11.0,31.0,31,0.00,,,-99.99,,2013-02-06 04:31:00,
2013-02-05 20:42:00,67.0,35.0,29.87,NW,310,11.0,31.0,31,0.00,,,-99.99,,2013-02-06 04:42:00,
2013-02-05 21:22:00,65.0,37.0,29.88,NW,310,14.0,17.0,35,0.00,,,-99.99,,2013-02-06 05:22:00,
2013-02-05 21:31:00,65.0,37.0,29.88,NW,310,14.0,17.0,35,0.00,,,-99.99,,2013-02-06 05:31:00,
2013-02-05 21:41:00,65.0,37.0,29.88,NW,310,14.0,17.0,35,0.00,,,-99.99,,2013-02-06 05:41:00,
2013-02-05 22:21:00,65.0,37.0,29.89,NW,320,13.0,25.0,35,0.00,,,-99.99,,2013-02-06 06:21:00,
2013-02-05 22:31:00,65.0,37.0,29.89,NW,320,13.0,25.0,35,0.00,,,-99.99,,2013-02-06 06:31:00,
2013-02-05 22:42:00,65.0,37.0,29.89,NW,320,13.0,25.0,35,0.00,,,-99.99,,2013-02-06 06:42:00,
2013-02-05 23:21:00,65.0,33.0,29.88,NW,320,25.0,32.0,30,0.00,,,-99.99,,2013-02-06 07:21:00,
2013-02-05 23:32:00,65.0,33.0,29.88,NW,320,25.0,32.0,30,0.00,,,-99.99,,2013-02-06 07:32:00,
2013-02-05 23:41:00,65.0,33.0,29.88,NW,320,25.0,32.0,30,0.00,,,-99.99,,2013-02-06 07:41:00,